THA119 VTCC-VTBS
Flight info
| Callsign | THA119 |
|---|---|
| Flight time | 0h 57m |
| Altitude | 29000 |
| Route | PANTA2C PANTA Y7 BLAFF NORTA1C |
| Aircraft | B77W/H-SDE1E2E3FGHIJ2J3J4J5M1RWXY/LB1D1 |
Departure
| Time | 2026-04-21 16:27 |
|---|---|
| Airport | Chiang Mai International Airport (VTCC) |
Arrival
| Time | 2026-04-21 17:24 |
|---|---|
| Airport | Suvarnabhumi Airport (VTBS) |
| Time | Latitude | Longitude | Altitude | Speed | Heading |
|---|---|---|---|---|---|
| 2026-04-21 15:49 | 18.76848 | 98.96725 | 1029 ft | 0 kts | 91° |
| 2026-04-21 16:13 | 18.76848 | 98.96719 | 1031 ft | 2 kts | 92° |
| 2026-04-21 16:14 | 18.76848 | 98.96703 | 1031 ft | 2 kts | 91° |
| 2026-04-21 16:14 | 18.76849 | 98.96688 | 1031 ft | 2 kts | 85° |
| 2026-04-21 16:14 | 18.76845 | 98.96673 | 1031 ft | 2 kts | 61° |
| 2026-04-21 16:14 | 18.76836 | 98.96660 | 1031 ft | 2 kts | 42° |
| 2026-04-21 16:15 | 18.76824 | 98.96651 | 1030 ft | 2 kts | 23° |
| 2026-04-21 16:15 | 18.76809 | 98.96646 | 1030 ft | 2 kts | 4° |
| 2026-04-21 16:15 | 18.76794 | 98.96647 | 1030 ft | 2 kts | 356° |
| 2026-04-21 16:15 | 18.76779 | 98.96647 | 1029 ft | 2 kts | 359° |
| 2026-04-21 16:16 | 18.76764 | 98.96647 | 1029 ft | 2 kts | 1° |
| 2026-04-21 16:16 | 18.76749 | 98.96647 | 1029 ft | 2 kts | 0° |
| 2026-04-21 16:16 | 18.76743 | 98.96647 | 1029 ft | 0 kts | 0° |
| 2026-04-21 16:19 | 18.76748 | 98.96647 | 1029 ft | 2 kts | 0° |
| 2026-04-21 16:19 | 18.76773 | 98.96647 | 1029 ft | 5 kts | 0° |
| 2026-04-21 16:20 | 18.76823 | 98.96647 | 1030 ft | 8 kts | 0° |
| 2026-04-21 16:20 | 18.76884 | 98.96647 | 1031 ft | 9 kts | 359° |
| 2026-04-21 16:20 | 18.76956 | 98.96645 | 1031 ft | 11 kts | 359° |
| 2026-04-21 16:20 | 18.77034 | 98.96626 | 1032 ft | 11 kts | 333° |
| 2026-04-21 16:21 | 18.77099 | 98.96581 | 1034 ft | 10 kts | 314° |
| 2026-04-21 16:21 | 18.77150 | 98.96529 | 1036 ft | 9 kts | 332° |
| 2026-04-21 16:21 | 18.77220 | 98.96518 | 1037 ft | 10 kts | 359° |
| 2026-04-21 16:21 | 18.77300 | 98.96516 | 1037 ft | 12 kts | 0° |
| 2026-04-21 16:22 | 18.77389 | 98.96517 | 1038 ft | 12 kts | 0° |
| 2026-04-21 16:22 | 18.77478 | 98.96518 | 1040 ft | 12 kts | 0° |
| 2026-04-21 16:22 | 18.77567 | 98.96518 | 1041 ft | 12 kts | 0° |
| 2026-04-21 16:22 | 18.77654 | 98.96519 | 1043 ft | 12 kts | 0° |
| 2026-04-21 16:23 | 18.77746 | 98.96519 | 1043 ft | 13 kts | 0° |
| 2026-04-21 16:23 | 18.77846 | 98.96519 | 1043 ft | 14 kts | 360° |
| 2026-04-21 16:23 | 18.77946 | 98.96519 | 1045 ft | 14 kts | 360° |
| 2026-04-21 16:23 | 18.78046 | 98.96519 | 1047 ft | 14 kts | 360° |
| 2026-04-21 16:24 | 18.78140 | 98.96503 | 1049 ft | 13 kts | 333° |
| 2026-04-21 16:24 | 18.78218 | 98.96452 | 1051 ft | 13 kts | 328° |
| 2026-04-21 16:24 | 18.78298 | 98.96401 | 1052 ft | 13 kts | 328° |
| 2026-04-21 16:24 | 18.78366 | 98.96339 | 1054 ft | 11 kts | 289° |
| 2026-04-21 16:25 | 18.78348 | 98.96298 | 1055 ft | 6 kts | 193° |
| 2026-04-21 16:25 | 18.78311 | 98.96296 | 1054 ft | 0 kts | 180° |
| 2026-04-21 16:25 | 18.78307 | 98.96296 | 1054 ft | 4 kts | 180° |
| 2026-04-21 16:26 | 18.78143 | 98.96294 | 1053 ft | 54 kts | 181° |
| 2026-04-21 16:26 | 18.77507 | 98.96291 | 1045 ft | 124 kts | 180° |
| 2026-04-21 16:26 | 18.76426 | 98.96293 | 1036 ft | 182 kts | 181° |
| 2026-04-21 16:26 | 18.75074 | 98.96281 | 1491 ft | 196 kts | 181° |
| 2026-04-21 16:27 | 18.73742 | 98.96285 | 2385 ft | 194 kts | 181° |
| 2026-04-21 16:27 | 18.72358 | 98.96279 | 2870 ft | 206 kts | 181° |
| 2026-04-21 16:27 | 18.70839 | 98.96273 | 3261 ft | 224 kts | 181° |
| 2026-04-21 16:27 | 18.69190 | 98.96269 | 3716 ft | 241 kts | 181° |
| 2026-04-21 16:28 | 18.67447 | 98.96265 | 4202 ft | 258 kts | 181° |
| 2026-04-21 16:28 | 18.65596 | 98.96260 | 4819 ft | 269 kts | 181° |
| 2026-04-21 16:28 | 18.63704 | 98.96255 | 5585 ft | 275 kts | 181° |
| 2026-04-21 16:28 | 18.61783 | 98.96251 | 6342 ft | 280 kts | 181° |
| 2026-04-21 16:29 | 18.60453 | 98.96248 | 6837 ft | 283 kts | 181° |
| 2026-04-21 16:29 | 18.57795 | 98.96241 | 7814 ft | 289 kts | 181° |
| 2026-04-21 16:29 | 18.55757 | 98.96236 | 8551 ft | 293 kts | 181° |
| 2026-04-21 16:29 | 18.53708 | 98.96231 | 9235 ft | 298 kts | 180° |
| 2026-04-21 16:30 | 18.51641 | 98.96468 | 9909 ft | 303 kts | 163° |
| 2026-04-21 16:30 | 18.49679 | 98.97349 | 10508 ft | 312 kts | 149° |
| 2026-04-21 16:30 | 18.47893 | 98.98747 | 10887 ft | 329 kts | 135° |
| 2026-04-21 16:30 | 18.46417 | 99.00636 | 11281 ft | 345 kts | 123° |
| 2026-04-21 16:31 | 18.45039 | 99.02763 | 11712 ft | 361 kts | 124° |
| 2026-04-21 16:31 | 18.43501 | 99.04961 | 12198 ft | 376 kts | 126° |
| 2026-04-21 16:31 | 18.41889 | 99.07162 | 12817 ft | 386 kts | 127° |
| 2026-04-21 16:31 | 18.40232 | 99.09392 | 13596 ft | 391 kts | 127° |
| 2026-04-21 16:32 | 18.38541 | 99.11655 | 14419 ft | 395 kts | 128° |
| 2026-04-21 16:32 | 18.36842 | 99.13918 | 15199 ft | 399 kts | 128° |
| 2026-04-21 16:32 | 18.35098 | 99.16238 | 15747 ft | 406 kts | 128° |
| 2026-04-21 16:32 | 18.33344 | 99.18566 | 15871 ft | 407 kts | 129° |
| 2026-04-21 16:33 | 18.31590 | 99.20892 | 15878 ft | 406 kts | 129° |
| 2026-04-21 16:33 | 18.29841 | 99.23209 | 15875 ft | 405 kts | 129° |
| 2026-04-21 16:33 | 18.28071 | 99.25551 | 15865 ft | 406 kts | 129° |
| 2026-04-21 16:33 | 18.26312 | 99.27878 | 15856 ft | 406 kts | 129° |
| 2026-04-21 16:34 | 18.24417 | 99.30066 | 15852 ft | 405 kts | 138° |
| 2026-04-21 16:34 | 18.22160 | 99.31875 | 15837 ft | 405 kts | 149° |
| 2026-04-21 16:34 | 18.19599 | 99.33192 | 16250 ft | 416 kts | 161° |
| 2026-04-21 16:34 | 18.16900 | 99.34158 | 17242 ft | 411 kts | 163° |
| 2026-04-21 16:35 | 18.14177 | 99.35088 | 18191 ft | 409 kts | 163° |
| 2026-04-21 16:35 | 18.11476 | 99.36002 | 18839 ft | 414 kts | 163° |
| 2026-04-21 16:35 | 18.08703 | 99.36935 | 19453 ft | 421 kts | 163° |
| 2026-04-21 16:35 | 18.05867 | 99.37888 | 20127 ft | 426 kts | 163° |
| 2026-04-21 16:36 | 18.03052 | 99.38832 | 20814 ft | 429 kts | 163° |
| 2026-04-21 16:36 | 18.00202 | 99.39786 | 21478 ft | 433 kts | 163° |
| 2026-04-21 16:36 | 17.97312 | 99.40753 | 22123 ft | 437 kts | 163° |
| 2026-04-21 16:36 | 17.94403 | 99.41725 | 22770 ft | 441 kts | 163° |
| 2026-04-21 16:37 | 17.91434 | 99.42717 | 23372 ft | 446 kts | 163° |
| 2026-04-21 16:37 | 17.88467 | 99.43707 | 23933 ft | 451 kts | 163° |
| 2026-04-21 16:37 | 17.85431 | 99.44720 | 24519 ft | 456 kts | 163° |
| 2026-04-21 16:37 | 17.82397 | 99.45731 | 25095 ft | 461 kts | 163° |
| 2026-04-21 16:38 | 17.79322 | 99.46755 | 25646 ft | 466 kts | 163° |
| 2026-04-21 16:38 | 17.76225 | 99.47787 | 26238 ft | 469 kts | 163° |
| 2026-04-21 16:38 | 17.73110 | 99.48825 | 26816 ft | 473 kts | 163° |
| 2026-04-21 16:38 | 17.69930 | 99.49882 | 27369 ft | 478 kts | 163° |
| 2026-04-21 16:39 | 17.66779 | 99.50932 | 27919 ft | 481 kts | 164° |
| 2026-04-21 16:39 | 17.63570 | 99.51999 | 28523 ft | 484 kts | 163° |
| 2026-04-21 16:39 | 17.60330 | 99.53077 | 28815 ft | 486 kts | 164° |
| 2026-04-21 16:40 | 17.53915 | 99.55210 | 28823 ft | 480 kts | 163° |
| 2026-04-21 16:40 | 17.47553 | 99.57323 | 28817 ft | 481 kts | 163° |
| 2026-04-21 16:41 | 17.42216 | 99.59095 | 28809 ft | 481 kts | 164° |
| 2026-04-21 16:41 | 17.34759 | 99.61568 | 28811 ft | 480 kts | 163° |
| 2026-04-21 16:42 | 17.28392 | 99.63677 | 28803 ft | 480 kts | 163° |
| 2026-04-21 16:42 | 17.22011 | 99.65791 | 28793 ft | 481 kts | 164° |
| 2026-04-21 16:43 | 17.15630 | 99.67902 | 28797 ft | 480 kts | 163° |
| 2026-04-21 16:43 | 17.09268 | 99.70006 | 28787 ft | 480 kts | 164° |
| 2026-04-21 16:44 | 17.02892 | 99.72113 | 28787 ft | 480 kts | 163° |
| 2026-04-21 16:44 | 16.96521 | 99.74216 | 28788 ft | 479 kts | 163° |
| 2026-04-21 16:45 | 16.90128 | 99.76326 | 28799 ft | 480 kts | 163° |
| 2026-04-21 16:45 | 16.83738 | 99.78433 | 28787 ft | 480 kts | 163° |
| 2026-04-21 16:46 | 16.77357 | 99.80537 | 28784 ft | 480 kts | 163° |
| 2026-04-21 16:46 | 16.70976 | 99.82639 | 28798 ft | 479 kts | 163° |
| 2026-04-21 16:47 | 16.64570 | 99.84747 | 28796 ft | 480 kts | 163° |
| 2026-04-21 16:47 | 16.58192 | 99.86845 | 28792 ft | 480 kts | 163° |
| 2026-04-21 16:48 | 16.51832 | 99.88937 | 28788 ft | 480 kts | 163° |
| 2026-04-21 16:48 | 16.45413 | 99.91045 | 28775 ft | 481 kts | 163° |
| 2026-04-21 16:49 | 16.39029 | 99.93141 | 28776 ft | 480 kts | 163° |
| 2026-04-21 16:49 | 16.32678 | 99.95225 | 28783 ft | 478 kts | 163° |
| 2026-04-21 16:50 | 16.26330 | 99.97321 | 28775 ft | 478 kts | 163° |
| 2026-04-21 16:50 | 16.19947 | 99.99429 | 28776 ft | 479 kts | 163° |
| 2026-04-21 16:51 | 16.13611 | 100.01519 | 28783 ft | 478 kts | 163° |
| 2026-04-21 16:51 | 16.07248 | 100.03616 | 28774 ft | 479 kts | 162° |
| 2026-04-21 16:52 | 16.00864 | 100.05720 | 28773 ft | 477 kts | 162° |
| 2026-04-21 16:52 | 15.95592 | 100.07455 | 28775 ft | 479 kts | 162° |
| 2026-04-21 16:53 | 15.88143 | 100.09905 | 28772 ft | 478 kts | 162° |
| 2026-04-21 16:53 | 15.81786 | 100.11995 | 28782 ft | 478 kts | 162° |
| 2026-04-21 16:54 | 15.75458 | 100.14074 | 28781 ft | 479 kts | 162° |
| 2026-04-21 16:54 | 15.69057 | 100.16175 | 28785 ft | 479 kts | 162° |
| 2026-04-21 16:55 | 15.62701 | 100.18260 | 28791 ft | 478 kts | 162° |
| 2026-04-21 16:55 | 15.56328 | 100.20350 | 28794 ft | 477 kts | 162° |
| 2026-04-21 16:56 | 15.50018 | 100.22417 | 28802 ft | 478 kts | 162° |
| 2026-04-21 16:56 | 15.43657 | 100.24500 | 28804 ft | 478 kts | 162° |
| 2026-04-21 16:57 | 15.37290 | 100.26583 | 28806 ft | 479 kts | 162° |
| 2026-04-21 16:57 | 15.30907 | 100.28671 | 28806 ft | 478 kts | 162° |
| 2026-04-21 16:57 | 15.27802 | 100.29820 | 28508 ft | 470 kts | 155° |
| 2026-04-21 16:58 | 15.24944 | 100.31364 | 27986 ft | 466 kts | 149° |
| 2026-04-21 16:58 | 15.22143 | 100.33078 | 27449 ft | 462 kts | 148° |
| 2026-04-21 16:58 | 15.19402 | 100.34768 | 26921 ft | 459 kts | 148° |
| 2026-04-21 16:58 | 15.16664 | 100.36455 | 26394 ft | 455 kts | 148° |
| 2026-04-21 16:59 | 15.13943 | 100.38129 | 25863 ft | 452 kts | 148° |
| 2026-04-21 16:59 | 15.11268 | 100.39774 | 25343 ft | 449 kts | 148° |
| 2026-04-21 16:59 | 15.08577 | 100.41427 | 24815 ft | 446 kts | 147° |
| 2026-04-21 16:59 | 15.05933 | 100.43050 | 24290 ft | 443 kts | 147° |
| 2026-04-21 17:00 | 15.03304 | 100.44663 | 23767 ft | 440 kts | 147° |
| 2026-04-21 17:00 | 15.00655 | 100.46288 | 23239 ft | 437 kts | 147° |
| 2026-04-21 17:00 | 14.98941 | 100.47339 | 22898 ft | 435 kts | 147° |
| 2026-04-21 17:00 | 14.95456 | 100.49474 | 22199 ft | 431 kts | 147° |
| 2026-04-21 17:01 | 14.92891 | 100.51047 | 21695 ft | 429 kts | 147° |
| 2026-04-21 17:01 | 14.90313 | 100.52625 | 21176 ft | 427 kts | 147° |
| 2026-04-21 17:01 | 14.87768 | 100.54183 | 20646 ft | 425 kts | 147° |
| 2026-04-21 17:01 | 14.85235 | 100.55733 | 20115 ft | 424 kts | 147° |
| 2026-04-21 17:02 | 14.82679 | 100.57298 | 19580 ft | 422 kts | 147° |
| 2026-04-21 17:02 | 14.80162 | 100.58838 | 19048 ft | 420 kts | 148° |
| 2026-04-21 17:02 | 14.77657 | 100.60369 | 18520 ft | 418 kts | 148° |
| 2026-04-21 17:02 | 14.75166 | 100.61892 | 17991 ft | 416 kts | 148° |
| 2026-04-21 17:03 | 14.72680 | 100.63360 | 17772 ft | 405 kts | 153° |
| 2026-04-21 17:03 | 14.70087 | 100.64412 | 17619 ft | 394 kts | 161° |
| 2026-04-21 17:03 | 14.67496 | 100.65234 | 17299 ft | 388 kts | 162° |
| 2026-04-21 17:03 | 14.64904 | 100.66038 | 16960 ft | 382 kts | 162° |
| 2026-04-21 17:04 | 14.62381 | 100.66818 | 16642 ft | 377 kts | 162° |
| 2026-04-21 17:04 | 14.59868 | 100.67595 | 16319 ft | 371 kts | 162° |
| 2026-04-21 17:04 | 14.57408 | 100.68354 | 16008 ft | 367 kts | 162° |
| 2026-04-21 17:04 | 14.54965 | 100.69108 | 15699 ft | 367 kts | 162° |
| 2026-04-21 17:05 | 14.52488 | 100.69871 | 15385 ft | 366 kts | 162° |
| 2026-04-21 17:05 | 14.50066 | 100.70616 | 15078 ft | 363 kts | 162° |
| 2026-04-21 17:05 | 14.47620 | 100.71369 | 14770 ft | 359 kts | 162° |
| 2026-04-21 17:05 | 14.45193 | 100.71853 | 14463 ft | 357 kts | 177° |
| 2026-04-21 17:06 | 14.42722 | 100.71661 | 14159 ft | 356 kts | 191° |
| 2026-04-21 17:06 | 14.40291 | 100.71086 | 13866 ft | 355 kts | 193° |
| 2026-04-21 17:06 | 14.37902 | 100.70467 | 13566 ft | 352 kts | 194° |
| 2026-04-21 17:06 | 14.35524 | 100.69844 | 13268 ft | 349 kts | 194° |
| 2026-04-21 17:07 | 14.33962 | 100.69434 | 13073 ft | 347 kts | 194° |
| 2026-04-21 17:07 | 14.30833 | 100.68611 | 12686 ft | 348 kts | 194° |
| 2026-04-21 17:07 | 14.28486 | 100.67993 | 12390 ft | 348 kts | 194° |
| 2026-04-21 17:07 | 14.26116 | 100.67368 | 12092 ft | 347 kts | 194° |
| 2026-04-21 17:08 | 14.23744 | 100.66743 | 11851 ft | 350 kts | 194° |
| 2026-04-21 17:08 | 14.21331 | 100.66109 | 11834 ft | 366 kts | 194° |
| 2026-04-21 17:08 | 14.18831 | 100.65450 | 11819 ft | 368 kts | 194° |
| 2026-04-21 17:08 | 14.16401 | 100.64811 | 11795 ft | 353 kts | 194° |
| 2026-04-21 17:09 | 14.11716 | 100.63578 | 11292 ft | 339 kts | 194° |
| 2026-04-21 17:09 | 14.09447 | 100.62981 | 11115 ft | 329 kts | 194° |
| 2026-04-21 17:09 | 14.07257 | 100.62405 | 10971 ft | 319 kts | 194° |
| 2026-04-21 17:10 | 14.05146 | 100.61850 | 10837 ft | 309 kts | 194° |
| 2026-04-21 17:10 | 14.03055 | 100.61508 | 10705 ft | 297 kts | 176° |
| 2026-04-21 17:10 | 14.01107 | 100.62006 | 10582 ft | 284 kts | 152° |
| 2026-04-21 17:10 | 13.99508 | 100.63172 | 10418 ft | 272 kts | 130° |
| 2026-04-21 17:11 | 13.98489 | 100.64781 | 10087 ft | 269 kts | 113° |
| 2026-04-21 17:11 | 13.97809 | 100.66579 | 9723 ft | 269 kts | 106° |
| 2026-04-21 17:11 | 13.97299 | 100.68463 | 9350 ft | 269 kts | 95° |
| 2026-04-21 17:11 | 13.97465 | 100.70343 | 8988 ft | 264 kts | 68° |
| 2026-04-21 17:12 | 13.98458 | 100.71886 | 8658 ft | 259 kts | 39° |
| 2026-04-21 17:12 | 14.00018 | 100.72790 | 8347 ft | 257 kts | 20° |
| 2026-04-21 17:12 | 14.01738 | 100.73346 | 8009 ft | 258 kts | 15° |
| 2026-04-21 17:12 | 14.03482 | 100.73819 | 7671 ft | 258 kts | 15° |
| 2026-04-21 17:13 | 14.05247 | 100.74285 | 7343 ft | 259 kts | 15° |
| 2026-04-21 17:13 | 14.06968 | 100.74735 | 7139 ft | 253 kts | 15° |
| 2026-04-21 17:13 | 14.08663 | 100.75179 | 7086 ft | 248 kts | 15° |
| 2026-04-21 17:13 | 14.10341 | 100.75652 | 7084 ft | 251 kts | 23° |
| 2026-04-21 17:14 | 14.11755 | 100.76663 | 7059 ft | 242 kts | 51° |
| 2026-04-21 17:14 | 14.12511 | 100.78151 | 7043 ft | 234 kts | 78° |
| 2026-04-21 17:14 | 14.12544 | 100.79814 | 7028 ft | 232 kts | 104° |
| 2026-04-21 17:14 | 14.11871 | 100.81309 | 6993 ft | 233 kts | 129° |
| 2026-04-21 17:15 | 14.10626 | 100.82373 | 6801 ft | 235 kts | 154° |
| 2026-04-21 17:15 | 14.09072 | 100.82878 | 6542 ft | 235 kts | 166° |
| 2026-04-21 17:15 | 14.07462 | 100.83263 | 6253 ft | 235 kts | 166° |
| 2026-04-21 17:15 | 14.05856 | 100.83643 | 5970 ft | 234 kts | 166° |
| 2026-04-21 17:16 | 14.04271 | 100.84016 | 5686 ft | 233 kts | 166° |
| 2026-04-21 17:16 | 14.02687 | 100.84212 | 5574 ft | 224 kts | 180° |
| 2026-04-21 17:16 | 14.01146 | 100.84115 | 5495 ft | 217 kts | 185° |
| 2026-04-21 17:16 | 13.99653 | 100.83911 | 5224 ft | 216 kts | 188° |
| 2026-04-21 17:17 | 13.98173 | 100.83624 | 4931 ft | 215 kts | 191° |
| 2026-04-21 17:17 | 13.96704 | 100.83288 | 4654 ft | 213 kts | 192° |
| 2026-04-21 17:17 | 13.95271 | 100.82934 | 4393 ft | 211 kts | 193° |
| 2026-04-21 17:17 | 13.93846 | 100.82568 | 4131 ft | 209 kts | 193° |
| 2026-04-21 17:18 | 13.92458 | 100.82204 | 3985 ft | 199 kts | 193° |
| 2026-04-21 17:18 | 13.91161 | 100.81860 | 3968 ft | 185 kts | 193° |
| 2026-04-21 17:18 | 13.89936 | 100.81534 | 3955 ft | 179 kts | 193° |
| 2026-04-21 17:18 | 13.88708 | 100.81213 | 3736 ft | 178 kts | 193° |
| 2026-04-21 17:19 | 13.87517 | 100.80903 | 3521 ft | 173 kts | 193° |
| 2026-04-21 17:19 | 13.86358 | 100.80598 | 3313 ft | 170 kts | 193° |
| 2026-04-21 17:19 | 13.85221 | 100.80299 | 3109 ft | 169 kts | 193° |
| 2026-04-21 17:19 | 13.84072 | 100.79998 | 2897 ft | 168 kts | 193° |
| 2026-04-21 17:20 | 13.82926 | 100.79697 | 2683 ft | 167 kts | 193° |
| 2026-04-21 17:20 | 13.81786 | 100.79399 | 2470 ft | 166 kts | 193° |
| 2026-04-21 17:20 | 13.80685 | 100.79110 | 2266 ft | 162 kts | 193° |
| 2026-04-21 17:20 | 13.79585 | 100.78822 | 2051 ft | 159 kts | 193° |
| 2026-04-21 17:21 | 13.78541 | 100.78548 | 1869 ft | 148 kts | 193° |
| 2026-04-21 17:21 | 13.77534 | 100.78285 | 1674 ft | 146 kts | 193° |
| 2026-04-21 17:21 | 13.76558 | 100.78030 | 1480 ft | 145 kts | 193° |
| 2026-04-21 17:21 | 13.75569 | 100.77772 | 1291 ft | 145 kts | 193° |
| 2026-04-21 17:22 | 13.74920 | 100.77602 | 1165 ft | 145 kts | 193° |
| 2026-04-21 17:22 | 13.73578 | 100.77251 | 902 ft | 146 kts | 193° |
| 2026-04-21 17:22 | 13.72596 | 100.76995 | 708 ft | 146 kts | 193° |
| 2026-04-21 17:22 | 13.71594 | 100.76737 | 512 ft | 147 kts | 193° |
| 2026-04-21 17:23 | 13.70600 | 100.76479 | 307 ft | 147 kts | 194° |
| 2026-04-21 17:23 | 13.69608 | 100.76217 | 129 ft | 147 kts | 194° |
| 2026-04-21 17:23 | 13.68629 | 100.75960 | 16 ft | 135 kts | 194° |
| 2026-04-21 17:23 | 13.67834 | 100.75751 | 15 ft | 94 kts | 195° |
| 2026-04-21 17:24 | 13.67351 | 100.75624 | 15 ft | 43 kts | 194° |
| 2026-04-21 17:24 | 13.67187 | 100.75549 | 14 ft | 22 kts | 222° |
| 2026-04-21 17:24 | 13.67114 | 100.75440 | 14 ft | 11 kts | 271° |
| 2026-04-21 17:24 | 13.67179 | 100.75404 | 14 ft | 12 kts | 6° |
| 2026-04-21 17:25 | 13.67269 | 100.75424 | 14 ft | 13 kts | 14° |
| 2026-04-21 17:25 | 13.67364 | 100.75449 | 14 ft | 14 kts | 14° |
| 2026-04-21 17:25 | 13.67463 | 100.75475 | 15 ft | 15 kts | 14° |
| 2026-04-21 17:25 | 13.67570 | 100.75504 | 14 ft | 15 kts | 14° |
| 2026-04-21 17:26 | 13.67678 | 100.75532 | 14 ft | 16 kts | 14° |
| 2026-04-21 17:26 | 13.67789 | 100.75561 | 14 ft | 16 kts | 14° |
| 2026-04-21 17:26 | 13.67904 | 100.75590 | 14 ft | 17 kts | 14° |
| 2026-04-21 17:26 | 13.68020 | 100.75622 | 14 ft | 17 kts | 14° |
| 2026-04-21 17:27 | 13.68141 | 100.75653 | 14 ft | 17 kts | 14° |
| 2026-04-21 17:27 | 13.68261 | 100.75684 | 14 ft | 18 kts | 14° |
| 2026-04-21 17:27 | 13.68383 | 100.75716 | 14 ft | 14 kts | 14° |
| 2026-04-21 17:27 | 13.68450 | 100.75694 | 14 ft | 11 kts | 294° |
| 2026-04-21 17:28 | 13.68472 | 100.75611 | 14 ft | 12 kts | 283° |
| 2026-04-21 17:28 | 13.68493 | 100.75524 | 15 ft | 12 kts | 284° |
| 2026-04-21 17:28 | 13.68531 | 100.75455 | 14 ft | 11 kts | 345° |
| 2026-04-21 17:28 | 13.68613 | 100.75465 | 14 ft | 12 kts | 14° |
| 2026-04-21 17:29 | 13.68701 | 100.75487 | 14 ft | 13 kts | 14° |
| 2026-04-21 17:29 | 13.68752 | 100.75493 | 14 ft | 4 kts | 322° |
| 2026-04-21 17:29 | 13.68766 | 100.75458 | 14 ft | 6 kts | 284° |
| 2026-04-21 17:29 | 13.68774 | 100.75422 | 14 ft | 2 kts | 284° |
| 2026-04-21 17:30 | 13.68775 | 100.75419 | 14 ft | 0 kts | 283° |